Time;durP1;ratioP1;P1;durP2;ratioP2;P2;SDS_P1;SDS_P2;PMS_P1;PMS_P2;Temp;Humidity;BMP_temperature;BMP_pressure;BME280_temperature;BME280_humidity;BME280_pressure;Samples;Min_cycle;Max_cycle;Signal;HPM_P1;HPM_P2
2023/07/19 00:00:22;;;;;;;3.33;2.95;;;;;;;18.68;97.65;101254.00;5003353;28;20157;-79
2023/07/19 00:02:47;;;;;;;3.55;2.83;;;;;;;18.68;96.32;101250.34;5007349;28;20488;-79
2023/07/19 00:05:12;;;;;;;4.10;2.55;;;;;;;18.63;96.83;101247.97;5004008;28;20132;-79
2023/07/19 00:07:38;;;;;;;5.20;3.03;;;;;;;18.67;95.93;101254.41;4998530;28;20042;-79
2023/07/19 00:10:05;;;;;;;3.97;3.05;;;;;;;18.55;97.42;101247.28;5014499;28;20130;-80
2023/07/19 00:12:31;;;;;;;4.35;2.85;;;;;;;18.61;97.12;101250.44;5001598;28;20053;-79
2023/07/19 00:14:57;;;;;;;9.18;3.25;;;;;;;18.48;98.08;101259.50;4985462;28;20107;-79
2023/07/19 00:17:23;;;;;;;4.63;2.35;;;;;;;18.61;96.93;101256.91;4999929;28;20034;-79
2023/07/19 00:19:48;;;;;;;7.70;2.70;;;;;;;18.67;96.10;101251.56;4998704;28;20514;-79
2023/07/19 00:22:13;;;;;;;5.63;3.13;;;;;;;18.64;97.08;101260.94;4999594;28;20549;-79
2023/07/19 00:24:39;;;;;;;12.07;4.70;;;;;;;18.59;97.38;101261.41;5005909;28;20112;-80
2023/07/19 00:27:05;;;;;;;6.35;2.90;;;;;;;18.55;97.64;101246.47;5002536;28;20458;-79
2023/07/19 00:29:33;;;;;;;6.70;2.75;;;;;;;18.56;96.44;101236.75;4999284;28;20116;-80
2023/07/19 00:31:58;;;;;;;6.65;2.90;;;;;;;18.65;96.81;101246.31;5019699;28;20030;-79
2023/07/19 00:34:24;;;;;;;3.88;3.25;;;;;;;18.58;97.11;101237.13;5006310;28;20044;-79
2023/07/19 00:36:49;;;;;;;4.25;3.40;;;;;;;18.60;95.69;101237.50;5006281;28;20490;-79
2023/07/19 00:39:14;;;;;;;5.25;2.47;;;;;;;18.61;96.52;101241.94;5000701;28;20025;-79
2023/07/19 00:41:40;;;;;;;5.90;2.92;;;;;;;18.62;96.60;101244.34;4998403;28;20060;-80
2023/07/19 00:44:05;;;;;;;4.53;2.45;;;;;;;18.59;96.79;101241.56;5004169;28;20048;-79
2023/07/19 00:46:30;;;;;;;5.15;3.45;;;;;;;18.57;96.88;101238.34;4996060;28;20148;-79
2023/07/19 00:48:56;;;;;;;5.10;2.65;;;;;;;18.55;97.19;101241.63;5003813;28;20232;-79
2023/07/19 00:51:22;;;;;;;7.38;2.65;;;;;;;18.54;97.01;101233.53;5001921;28;20100;-78
2023/07/19 00:53:49;;;;;;;4.82;2.47;;;;;;;18.47;97.43;101232.38;4995255;28;20611;-79
2023/07/19 00:56:15;;;;;;;6.22;2.60;;;;;;;18.55;96.95;101229.44;4999029;28;20034;-79
2023/07/19 00:58:42;;;;;;;4.85;2.45;;;;;;;18.51;98.58;101234.34;5011265;28;20113;-79
2023/07/19 01:01:09;;;;;;;7.00;2.72;;;;;;;18.56;98.20;101236.75;4998881;28;20052;-79
2023/07/19 01:03:35;;;;;;;4.03;2.97;;;;;;;18.44;98.86;101232.41;4993120;28;20060;-79
2023/07/19 01:06:01;;;;;;;3.63;2.88;;;;;;;18.47;100.00;101235.22;5002001;28;20048;-79
2023/07/19 01:08:27;;;;;;;3.50;2.78;;;;;;;18.24;100.00;101226.59;4999028;28;20489;-79
2023/07/19 01:10:53;;;;;;;5.22;3.22;;;;;;;18.46;98.27;101232.81;4989791;28;20037;-79
2023/07/19 01:13:19;;;;;;;7.05;2.55;;;;;;;18.44;99.27;101235.25;4997714;28;20085;-79
2023/07/19 01:15:44;;;;;;;7.38;2.97;;;;;;;18.40;98.68;101229.63;5010312;28;20593;-79
2023/07/19 01:18:10;;;;;;;4.80;2.55;;;;;;;18.31;99.93;101232.19;5002501;28;20056;-79
2023/07/19 01:20:36;;;;;;;2.92;2.42;;;;;;;18.40;99.34;101235.28;4999632;28;20085;-79
2023/07/19 01:23:01;;;;;;;6.85;3.03;;;;;;;18.28;99.34;101227.38;4998766;28;20493;-80
2023/07/19 01:25:27;;;;;;;6.35;2.50;;;;;;;18.23;100.00;101219.31;4994813;28;20040;-80
2023/07/19 01:27:52;;;;;;;5.03;2.50;;;;;;;18.35;98.96;101212.31;4997574;28;20034;-79
2023/07/19 01:30:18;;;;;;;3.25;2.80;;;;;;;18.33;99.64;101220.44;4991898;28;20094;-79
2023/07/19 01:32:44;;;;;;;4.15;3.13;;;;;;;18.31;100.00;101215.19;4997765;28;20177;-79
2023/07/19 01:35:10;;;;;;;6.13;3.47;;;;;;;18.33;98.28;101214.75;4991488;28;20034;-79
2023/07/19 01:37:36;;;;;;;5.03;3.42;;;;;;;18.24;100.00;101218.09;4996815;28;20085;-79
2023/07/19 01:40:02;;;;;;;6.50;3.50;;;;;;;18.24;99.51;101216.06;4993181;28;20072;-79
2023/07/19 01:42:27;;;;;;;6.25;3.58;;;;;;;18.26;98.99;101210.00;5001392;28;20077;-79
2023/07/19 01:44:54;;;;;;;4.05;2.97;;;;;;;18.25;99.72;101208.38;4996727;28;20087;-79
2023/07/19 01:47:19;;;;;;;4.55;2.90;;;;;;;18.24;99.56;101215.28;4992488;28;20026;-79
2023/07/19 01:49:45;;;;;;;7.38;3.03;;;;;;;18.18;100.00;101212.09;4998964;28;20377;-79
2023/07/19 01:52:10;;;;;;;6.40;3.20;;;;;;;18.19;99.81;101215.72;4995678;28;20034;-80
2023/07/19 01:54:35;;;;;;;6.38;3.78;;;;;;;18.11;100.00;101217.03;4997146;28;20070;-79
2023/07/19 01:57:01;;;;;;;6.60;3.28;;;;;;;18.07;100.00;101211.41;4995963;28;20044;-79
2023/07/19 01:59:26;;;;;;;6.50;3.90;;;;;;;18.17;100.00;101207.66;4991829;28;20065;-79
2023/07/19 02:01:53;;;;;;;4.93;3.92;;;;;;;18.14;100.00;101210.53;4991000;28;20027;-79
2023/07/19 02:04:18;;;;;;;8.32;4.32;;;;;;;18.14;99.70;101210.53;4992884;28;20383;-79
2023/07/19 02:06:43;;;;;;;4.97;3.53;;;;;;;18.12;100.00;101218.66;4992807;28;20041;-79
2023/07/19 02:09:09;;;;;;;5.38;3.15;;;;;;;18.03;99.81;101205.78;4993949;28;20139;-79
2023/07/19 02:11:35;;;;;;;8.77;4.03;;;;;;;18.04;100.00;101200.91;5004211;28;20661;-79
2023/07/19 02:14:00;;;;;;;5.38;4.10;;;;;;;18.10;99.23;101192.78;4994390;28;20041;-80
2023/07/19 02:16:26;;;;;;;5.82;3.95;;;;;;;18.04;100.00;101198.88;4989832;28;20034;-79
2023/07/19 02:18:51;;;;;;;5.57;3.40;;;;;;;17.84;100.00;101193.03;4998995;28;20021;-79
2023/07/19 02:21:17;;;;;;;5.85;3.85;;;;;;;17.90;100.00;101196.22;5008331;28;20151;-79
2023/07/19 02:23:43;;;;;;;6.60;4.97;;;;;;;17.97;99.19;101189.69;5001258;28;20382;-79
2023/07/19 02:26:09;;;;;;;8.88;4.43;;;;;;;17.92;100.00;101196.63;4999687;28;20042;-79
2023/07/19 02:28:34;;;;;;;8.27;4.03;;;;;;;17.90;100.00;101187.75;5009019;28;20126;-79
2023/07/19 02:31:00;;;;;;;9.27;4.22;;;;;;;17.86;100.00;101196.25;5013325;28;20371;-79
2023/07/19 02:33:25;;;;;;;5.22;3.35;;;;;;;18.03;98.92;101200.13;5010587;28;20045;-79
2023/07/19 02:35:54;;;;;;;4.47;3.47;;;;;;;18.02;97.54;101201.34;4989190;28;20041;-79
2023/07/19 02:38:24;;;;;;;9.35;4.07;;;;;;;17.97;98.47;101193.31;5024557;28;20064;-79
2023/07/19 02:40:49;;;;;;;5.18;3.63;;;;;;;18.04;97.81;101198.88;5007989;28;20054;-79
2023/07/19 02:43:15;;;;;;;6.57;3.60;;;;;;;18.05;96.92;101189.16;5007260;28;20201;-79
2023/07/19 02:45:41;;;;;;;10.52;4.50;;;;;;;18.00;97.70;101195.28;5007278;28;20041;-79
2023/07/19 02:48:06;;;;;;;5.57;3.35;;;;;;;17.90;97.62;101187.75;5004303;28;20037;-79
2023/07/19 02:50:32;;;;;;;6.90;4.40;;;;;;;17.88;99.67;101187.34;5002594;28;20037;-79
2023/07/19 02:52:57;;;;;;;7.75;4.85;;;;;;;17.82;98.64;101183.34;4985408;28;20479;-79
2023/07/19 02:55:23;;;;;;;8.75;4.53;;;;;;;17.93;99.90;101186.88;4990479;28;20080;-79
2023/07/19 02:57:48;;;;;;;8.30;6.03;;;;;;;17.62;100.00;101183.91;4996615;28;20123;-79
2023/07/19 03:00:14;;;;;;;6.50;4.03;;;;;;;17.72;99.62;101189.91;4992684;28;20037;-79
2023/07/19 03:02:40;;;;;;;7.95;4.20;;;;;;;17.68;100.00;101182.25;4994665;28;20149;-79
2023/07/19 03:05:06;;;;;;;8.48;4.25;;;;;;;17.77;100.00;101192.28;4994865;28;20081;-79
2023/07/19 03:07:36;;;;;;;5.13;3.42;;;;;;;17.75;100.00;101197.56;4988873;28;20041;-80
2023/07/19 03:10:02;;;;;;;6.43;4.50;;;;;;;17.85;100.00;101196.69;4997342;28;20069;-79
2023/07/19 03:12:27;;;;;;;9.63;4.80;;;;;;;17.72;100.00;101190.72;5000507;28;20124;-79
2023/07/19 03:14:53;;;;;;;7.03;4.63;;;;;;;17.78;100.00;101196.72;5002533;28;20037;-80
2023/07/19 03:17:18;;;;;;;4.63;3.50;;;;;;;17.90;99.56;101198.22;4999417;28;20453;-80
2023/07/19 03:19:47;;;;;;;8.52;4.57;;;;;;;17.86;100.00;101196.25;4998786;28;20028;-79
2023/07/19 03:22:12;;;;;;;6.57;4.18;;;;;;;17.86;100.00;101199.09;5000340;28;20461;-79
2023/07/19 03:24:38;;;;;;;9.25;4.55;;;;;;;17.61;100.00;101204.97;4998766;28;20022;-79
2023/07/19 03:27:03;;;;;;;6.53;4.63;;;;;;;17.88;99.07;101204.34;4999295;28;20471;-79
2023/07/19 03:29:29;;;;;;;10.02;5.22;;;;;;;17.85;100.00;101208.00;5005042;28;20061;-79
2023/07/19 03:31:54;;;;;;;5.93;4.43;;;;;;;17.48;100.00;101199.03;4996742;28;20028;-80
2023/07/19 03:34:20;;;;;;;5.03;3.65;;;;;;;17.75;100.00;101208.88;4999989;28;20038;-81
2023/07/19 03:36:45;;;;;;;8.07;5.93;;;;;;;17.72;100.00;101206.91;4998143;28;20501;-82
2023/07/19 03:39:10;;;;;;;8.75;4.47;;;;;;;17.68;100.00;101204.88;5000462;28;20041;-81
2023/07/19 03:41:36;;;;;;;8.73;4.93;;;;;;;17.56;100.00;101204.59;5010891;28;20061;-81
2023/07/19 03:44:01;;;;;;;8.27;4.43;;;;;;;17.60;100.00;101217.53;4998140;28;20060;-82
2023/07/19 03:46:27;;;;;;;10.63;5.78;;;;;;;17.44;100.00;101211.59;4993952;28;20386;-82
2023/07/19 03:48:52;;;;;;;10.35;5.00;;;;;;;17.63;100.00;101211.03;4997687;28;20099;-83
2023/07/19 03:51:19;;;;;;;8.05;5.03;;;;;;;17.77;100.00;101203.59;4996711;28;20026;-83
2023/07/19 03:53:44;;;;;;;7.20;4.40;;;;;;;17.64;100.00;101200.50;4994910;28;20045;-83
2023/07/19 03:56:10;;;;;;;10.25;4.70;;;;;;;17.63;100.00;101193.25;5000823;28;20037;-82
2023/07/19 03:58:35;;;;;;;6.95;5.28;;;;;;;17.62;100.00;101200.91;4999031;28;20032;-82
2023/07/19 04:01:03;;;;;;;6.00;4.13;;;;;;;17.76;100.00;101208.47;5000955;28;20048;-81
2023/07/19 04:03:29;;;;;;;11.50;5.72;;;;;;;17.76;100.00;101207.66;4997950;28;20030;-81
2023/07/19 04:05:57;;;;;;;6.72;4.30;;;;;;;17.87;100.00;101225.38;5007585;28;20499;-80
2023/07/19 04:08:22;;;;;;;4.43;3.30;;;;;;;17.87;100.00;101219.72;5003039;28;20382;-80
2023/07/19 04:10:48;;;;;;;4.60;3.10;;;;;;;17.88;100.00;101212.84;4997588;28;20157;-80
2023/07/19 04:13:13;;;;;;;5.25;3.70;;;;;;;17.84;100.00;101214.91;4999234;28;20477;-80
2023/07/19 04:15:39;;;;;;;7.05;4.15;;;;;;;17.83;100.00;101218.94;4973017;28;20049;-81
2023/07/19 04:18:05;;;;;;;10.88;4.00;;;;;;;17.81;100.00;101218.53;5005282;28;20124;-81
2023/07/19 04:20:31;;;;;;;5.72;4.05;;;;;;;17.79;100.00;101218.97;5000502;28;20112;-81
2023/07/19 04:22:57;;;;;;;6.72;3.97;;;;;;;17.85;100.00;101222.16;5002904;28;20030;-81
2023/07/19 04:25:24;;;;;;;7.40;3.92;;;;;;;17.83;100.00;101214.06;5000545;28;20029;-81
2023/07/19 04:27:50;;;;;;;4.95;3.22;;;;;;;17.87;100.00;101212.00;5002628;28;20537;-81
2023/07/19 04:30:16;;;;;;;4.95;4.15;;;;;;;17.84;100.00;101214.91;5004288;28;20072;-81
2023/07/19 04:32:41;;;;;;;6.45;3.53;;;;;;;17.79;100.00;101206.81;5007401;28;20496;-81
2023/07/19 04:35:07;;;;;;;7.90;3.53;;;;;;;17.82;100.00;101203.16;4997271;28;20026;-80
2023/07/19 04:37:32;;;;;;;5.22;3.33;;;;;;;17.75;100.00;101200.38;5002843;28;20506;-81
2023/07/19 04:39:58;;;;;;;4.20;3.13;;;;;;;17.75;100.00;101201.22;5012550;28;20121;-81
2023/07/19 04:42:24;;;;;;;5.97;3.53;;;;;;;17.81;100.00;101198.72;4996223;28;20081;-81
2023/07/19 04:44:49;;;;;;;6.43;3.80;;;;;;;17.79;100.00;101201.97;5017633;28;20030;-81
2023/07/19 04:47:15;;;;;;;6.53;3.88;;;;;;;17.80;100.00;101208.44;4995328;28;20029;-81
2023/07/19 04:49:40;;;;;;;4.97;3.78;;;;;;;17.79;100.00;101201.16;5004808;28;20482;-81
2023/07/19 04:52:06;;;;;;;5.65;3.38;;;;;;;17.75;100.00;101203.22;5005491;28;20029;-81
2023/07/19 04:54:32;;;;;;;4.13;3.30;;;;;;;17.87;100.00;101199.88;5003851;28;20026;-81
2023/07/19 04:56:58;;;;;;;6.20;3.42;;;;;;;17.87;100.00;101199.88;4995024;28;20032;-81
2023/07/19 04:59:23;;;;;;;5.75;3.38;;;;;;;17.89;100.00;101194.59;4999151;28;20160;-81
2023/07/19 05:01:48;;;;;;;5.50;3.63;;;;;;;17.88;100.00;101193.81;5012488;28;20133;-80
2023/07/19 05:04:14;;;;;;;7.45;3.47;;;;;;;17.85;100.00;101194.63;5013193;28;21637;-81
2023/07/19 05:06:39;;;;;;;9.10;3.90;;;;;;;17.83;100.00;101197.09;5000103;28;20026;-81
2023/07/19 05:09:06;;;;;;;7.00;3.38;;;;;;;17.65;100.00;101191.59;4989514;28;20605;-81
2023/07/19 05:11:31;;;;;;;5.65;3.28;;;;;;;17.74;100.00;101204.44;4987963;28;20509;-81
2023/07/19 05:13:57;;;;;;;3.80;2.83;;;;;;;17.85;100.00;101194.63;4994919;28;20022;-81
2023/07/19 05:16:22;;;;;;;4.25;3.42;;;;;;;17.77;100.00;101197.94;4987787;28;20025;-81
2023/07/19 05:18:48;;;;;;;4.78;3.40;;;;;;;17.82;100.00;101187.00;4986793;28;20421;-81
2023/07/19 05:21:13;;;;;;;3.33;2.60;;;;;;;17.87;100.00;101186.53;4986495;28;20398;-81
2023/07/19 05:23:39;;;;;;;4.95;2.97;;;;;;;17.96;100.00;101194.56;4991481;28;20100;-81
2023/07/19 05:26:05;;;;;;;7.20;3.33;;;;;;;17.81;100.00;101193.03;4992762;28;21514;-81
2023/07/19 05:28:30;;;;;;;3.78;2.78;;;;;;;17.90;100.00;101201.91;4992698;28;20033;-80
2023/07/19 05:31:03;;;;;;;4.10;1.85;;;;;;;19.03;100.00;101198.00;4993246;28;20033;-79
2023/07/19 05:33:31;;;;;;;4.13;1.40;;;;;;;20.16;94.83;101206.22;4999061;28;20088;-79
2023/07/19 05:35:57;;;;;;;4.47;1.88;;;;;;;20.41;93.09;101209.34;4995194;28;20029;-79
2023/07/19 05:38:22;;;;;;;5.28;2.30;;;;;;;20.71;90.73;101204.66;4994000;28;20121;-79
2023/07/19 05:40:48;;;;;;;3.10;2.20;;;;;;;20.68;89.29;101206.34;4992375;28;20029;-79
2023/07/19 05:43:13;;;;;;;3.33;2.22;;;;;;;20.77;89.86;101200.06;4997479;28;20500;-79
2023/07/19 05:45:39;;;;;;;3.42;2.30;;;;;;;20.72;89.94;101200.56;4994455;28;20026;-79
2023/07/19 05:48:04;;;;;;;5.70;2.22;;;;;;;20.77;90.08;101208.59;4995684;28;20033;-79
2023/07/19 05:50:29;;;;;;;7.07;2.70;;;;;;;20.20;92.11;101221.16;4992829;28;20723;-79
2023/07/19 05:52:55;;;;;;;3.13;2.05;;;;;;;19.97;88.43;101219.97;4994846;28;20030;-79
2023/07/19 05:55:20;;;;;;;3.97;2.25;;;;;;;20.16;89.83;101220.41;4988719;28;20494;-79
2023/07/19 05:57:46;;;;;;;7.50;2.45;;;;;;;20.16;92.84;101218.38;4992317;28;20065;-78
2023/07/19 06:00:28;;;;;;;4.88;1.77;;;;;;;20.35;90.92;101211.09;4993536;28;20029;-78
2023/07/19 06:02:56;;;;;;;2.38;2.00;;;;;;;20.61;88.89;101217.06;4991094;28;20026;-78
2023/07/19 06:05:25;;;;;;;2.45;1.63;;;;;;;20.61;88.50;101209.34;4992364;28;20404;-78
2023/07/19 06:07:51;;;;;;;7.10;2.25;;;;;;;20.73;87.84;101207.06;4995585;28;20458;-78
2023/07/19 06:10:18;;;;;;;2.95;2.17;;;;;;;20.66;87.56;101213.69;4985046;28;20674;-79
2023/07/19 06:12:44;;;;;;;3.05;1.90;;;;;;;20.74;87.17;101220.03;5005558;28;20442;-79
2023/07/19 06:15:10;;;;;;;1.55;1.42;;;;;;;20.41;87.35;101209.34;4995213;28;20040;-79
2023/07/19 06:17:36;;;;;;;2.35;2.10;;;;;;;20.51;87.68;101214.00;5002090;28;20037;-79
2023/07/19 06:20:03;;;;;;;2.75;1.40;;;;;;;20.70;86.56;101215.25;4999113;28;20026;-79
2023/07/19 06:22:29;;;;;;;3.42;1.50;;;;;;;20.42;87.81;101222.28;5005865;28;20433;-79
2023/07/19 06:24:55;;;;;;;2.90;1.50;;;;;;;20.58;86.74;101221.59;5021384;28;20025;-79
2023/07/19 06:27:21;;;;;;;2.65;1.88;;;;;;;20.71;85.45;101216.81;4998288;28;20037;-79
2023/07/19 06:29:46;;;;;;;4.82;1.85;;;;;;;20.82;85.67;101213.75;4990716;28;20042;-80
2023/07/19 06:32:12;;;;;;;3.92;1.70;;;;;;;20.98;86.09;101212.97;5004558;28;20064;-80
2023/07/19 06:34:37;;;;;;;3.75;1.70;;;;;;;21.00;87.62;101215.41;5005845;28;20382;-79
2023/07/19 06:37:02;;;;;;;2.67;1.80;;;;;;;21.08;87.72;101211.94;5008417;28;20039;-80
2023/07/19 06:39:30;;;;;;;2.63;1.83;;;;;;;21.12;86.57;101211.81;5000281;28;20038;-80
2023/07/19 06:41:55;;;;;;;3.88;1.98;;;;;;;21.15;86.08;101216.66;5010016;28;20030;-80
2023/07/19 06:44:20;;;;;;;4.88;1.80;;;;;;;21.29;84.81;101216.31;5000940;28;20070;-79
2023/07/19 06:46:46;;;;;;;5.72;1.63;;;;;;;21.18;83.21;101215.75;5012161;28;20033;-80
2023/07/19 06:49:11;;;;;;;3.28;1.70;;;;;;;21.18;83.09;101218.59;5007690;28;20512;-80
2023/07/19 06:51:37;;;;;;;3.00;1.92;;;;;;;21.10;82.15;101220.00;4996886;28;20052;-79
2023/07/19 06:54:02;;;;;;;3.45;1.63;;;;;;;21.18;82.48;101215.75;5005389;28;20017;-79
2023/07/19 06:56:27;;;;;;;2.85;1.90;;;;;;;21.13;82.29;101224.81;5002029;28;20033;-78
2023/07/19 06:58:53;;;;;;;6.28;1.75;;;;;;;21.09;82.37;101221.25;4993740;28;20033;-78
2023/07/19 07:01:18;;;;;;;1.95;1.45;;;;;;;20.89;82.96;101213.59;4991538;28;20091;-79
2023/07/19 07:03:43;;;;;;;3.97;2.20;;;;;;;20.91;83.12;101219.66;5001239;28;20037;-79
2023/07/19 07:06:09;;;;;;;3.10;1.70;;;;;;;21.07;82.59;101215.22;5000146;28;20050;-79
2023/07/19 07:08:34;;;;;;;3.80;2.10;;;;;;;21.25;82.56;101212.75;5002790;28;20040;-80
2023/07/19 07:11:09;;;;;;;4.72;2.70;;;;;;;20.84;84.39;101213.31;5002632;28;20033;-80
2023/07/19 07:13:35;;;;;;;4.57;1.80;;;;;;;21.20;82.41;101224.66;5002851;28;20077;-79
2023/07/19 07:16:01;;;;;;;3.63;2.08;;;;;;;21.19;82.51;101228.75;5000455;28;20061;-79
2023/07/19 07:18:26;;;;;;;1.75;1.42;;;;;;;21.18;82.49;101224.28;4993792;28;20026;-79
2023/07/19 07:20:52;;;;;;;8.73;1.92;;;;;;;21.28;82.37;101231.78;5004483;28;20439;-81
2023/07/19 07:23:17;;;;;;;4.22;2.10;;;;;;;21.29;81.94;101227.69;5011477;28;20022;-81
2023/07/19 07:25:43;;;;;;;5.28;1.52;;;;;;;21.40;81.08;101238.00;5004160;28;20034;-81
2023/07/19 07:28:08;;;;;;;5.18;1.33;;;;;;;21.21;81.96;101237.66;5003081;28;20570;-81
2023/07/19 07:30:35;;;;;;;2.78;1.50;;;;;;;21.25;81.81;101229.81;5009628;28;20030;-81
2023/07/19 07:33:01;;;;;;;4.57;1.67;;;;;;;21.24;81.97;101236.75;5011339;28;20087;-81
2023/07/19 07:35:26;;;;;;;1.98;1.50;;;;;;;21.41;80.79;101234.72;5007911;28;20045;-81
2023/07/19 07:37:52;;;;;;;2.92;1.50;;;;;;;21.43;80.87;101232.25;5020466;28;20145;-80
2023/07/19 07:40:17;;;;;;;6.25;2.85;;;;;;;21.09;81.93;101213.53;5002571;28;20061;-79
2023/07/19 07:42:42;;;;;;;2.63;1.40;;;;;;;20.94;84.22;101217.16;5005065;28;20038;-80
2023/07/19 07:45:08;;;;;;;2.20;1.65;;;;;;;20.85;83.70;101221.41;5004872;28;20120;-82
2023/07/19 07:47:33;;;;;;;1.95;1.35;;;;;;;21.01;82.85;101219.81;5004137;28;20032;-82
2023/07/19 07:50:02;;;;;;;4.00;1.40;;;;;;;20.91;83.80;101219.66;5007957;28;20033;-82
2023/07/19 07:52:28;;;;;;;5.03;1.60;;;;;;;21.09;83.34;101224.09;5002832;28;20315;-82
2023/07/19 07:54:53;;;;;;;3.42;1.25;;;;;;;21.18;82.13;101224.28;5005849;28;20061;-82
2023/07/19 07:57:18;;;;;;;2.42;1.40;;;;;;;21.31;82.82;101225.19;5007612;28;20034;-82
2023/07/19 07:59:45;;;;;;;2.45;1.55;;;;;;;21.32;83.89;101218.25;5011094;28;20065;-82
2023/07/19 08:02:11;;;;;;;5.10;1.85;;;;;;;20.95;83.39;101207.38;5007752;28;20034;-82
2023/07/19 08:04:36;;;;;;;8.07;1.73;;;;;;;21.16;83.78;101211.75;5006191;28;20053;-82
2023/07/19 08:07:02;;;;;;;3.95;1.50;;;;;;;21.27;83.25;101209.44;5006124;28;20284;-82
2023/07/19 08:09:27;;;;;;;2.70;1.30;;;;;;;21.07;84.05;101209.53;5005226;28;20045;-82
2023/07/19 08:11:53;;;;;;;6.13;1.65;;;;;;;21.41;82.37;101211.13;5007912;28;20540;-82
2023/07/19 08:14:22;;;;;;;2.88;1.40;;;;;;;20.89;85.04;101212.78;5008459;28;20041;-83
2023/07/19 08:16:50;;;;;;;2.78;1.65;;;;;;;21.25;83.78;101207.06;5002308;28;20564;-82
2023/07/19 08:19:15;;;;;;;2.65;1.42;;;;;;;21.10;83.50;101211.47;5004851;28;20057;-82
2023/07/19 08:21:40;;;;;;;2.35;1.30;;;;;;;21.02;85.52;101201.50;5009320;28;20080;-82
2023/07/19 08:24:06;;;;;;;8.52;1.70;;;;;;;21.21;85.12;101197.78;5003858;28;20339;-82
2023/07/19 08:26:31;;;;;;;3.47;1.85;;;;;;;21.27;84.14;101201.72;5003654;28;20565;-82
2023/07/19 08:28:57;;;;;;;4.75;1.52;;;;;;;21.21;83.90;101199.81;5001614;28;20037;-82
2023/07/19 08:31:23;;;;;;;4.03;1.42;;;;;;;21.10;84.52;101200.09;5002246;28;20022;-82
2023/07/19 08:33:48;;;;;;;3.10;1.70;;;;;;;21.10;84.69;101197.22;5002963;28;20021;-82
2023/07/19 08:36:14;;;;;;;3.45;1.83;;;;;;;20.65;86.21;101207.22;5003345;28;20510;-82
2023/07/19 08:38:39;;;;;;;4.18;2.22;;;;;;;21.11;85.40;101202.50;5003250;28;20029;-82
2023/07/19 08:41:08;;;;;;;4.53;1.70;;;;;;;21.34;83.97;101195.03;5006575;28;20049;-83
2023/07/19 08:43:35;;;;;;;2.15;1.45;;;;;;;21.48;83.61;101202.44;5007085;28;20490;-82
2023/07/19 08:46:02;;;;;;;3.20;1.85;;;;;;;21.25;84.94;101192.81;5007168;28;20489;-82
2023/07/19 08:48:27;;;;;;;5.40;2.35;;;;;;;21.23;84.26;101194.47;5009301;28;20275;-82
2023/07/19 08:50:59;;;;;;;5.75;2.22;;;;;;;21.43;83.68;101197.28;5008211;28;20458;-82
2023/07/19 08:53:25;;;;;;;4.30;2.38;;;;;;;21.50;83.46;101200.75;5010053;28;20557;-82
2023/07/19 08:55:51;;;;;;;5.47;1.80;;;;;;;21.11;85.62;101193.16;5007178;28;20091;-82
2023/07/19 08:58:17;;;;;;;3.80;2.67;;;;;;;21.13;84.85;101189.88;5009179;28;20045;-83
2023/07/19 09:00:48;;;;;;;4.40;1.90;;;;;;;21.58;83.92;101192.81;5018566;28;20446;-82
2023/07/19 09:03:14;;;;;;;2.83;1.70;;;;;;;21.65;83.51;101198.34;5006130;28;20022;-82
2023/07/19 09:05:40;;;;;;;3.47;1.80;;;;;;;21.87;81.43;101192.06;5009643;28;20113;-82
2023/07/19 09:08:06;;;;;;;3.30;2.45;;;;;;;21.28;84.92;101191.91;5007939;28;20080;-82
2023/07/19 09:10:33;;;;;;;4.40;1.73;;;;;;;21.29;83.67;101187.84;5005162;28;20406;-83
2023/07/19 09:12:58;;;;;;;4.53;2.15;;;;;;;20.89;86.79;101204.22;5006641;28;20501;-83
2023/07/19 09:15:27;;;;;;;3.67;1.48;;;;;;;20.43;90.78;101206.06;5003807;28;20033;-83
2023/07/19 09:17:54;;;;;;;5.15;1.77;;;;;;;21.08;87.78;101196.88;5003970;28;20038;-83
2023/07/19 09:20:20;;;;;;;3.22;2.10;;;;;;;21.55;85.33;101210.81;5003471;28;20033;-83
2023/07/19 09:22:45;;;;;;;4.45;1.80;;;;;;;21.48;85.49;101206.09;5008424;28;20025;-83
2023/07/19 09:25:12;;;;;;;4.00;2.00;;;;;;;20.75;87.08;101198.91;5009530;28;20030;-83
2023/07/19 09:27:41;;;;;;;7.35;2.63;;;;;;;20.32;90.00;101200.56;5003823;28;20569;-82
2023/07/19 09:30:12;;;;;;;3.47;1.90;;;;;;;20.46;90.87;101205.97;5000672;28;20045;-83
2023/07/19 09:32:38;;;;;;;4.65;2.17;;;;;;;20.31;90.98;101199.78;5005167;28;20022;-83
2023/07/19 09:35:05;;;;;;;5.00;1.70;;;;;;;20.32;90.98;101197.72;5011277;28;20430;-83
2023/07/19 09:37:31;;;;;;;5.75;2.60;;;;;;;20.44;89.17;101205.59;5005874;28;20063;-83
2023/07/19 09:39:59;;;;;;;2.85;1.90;;;;;;;20.38;89.19;101198.81;5005503;28;20030;-83
2023/07/19 09:42:25;;;;;;;3.85;1.83;;;;;;;20.75;85.88;101199.69;4994593;28;20425;-81
2023/07/19 09:44:50;;;;;;;3.08;1.40;;;;;;;21.16;84.00;101200.38;5003756;28;20037;-81
2023/07/19 09:47:16;;;;;;;7.50;2.13;;;;;;;21.08;87.07;101202.56;5007191;28;20084;-81
2023/07/19 09:49:43;;;;;;;6.22;2.00;;;;;;;20.58;85.95;101207.38;5000080;28;20056;-81
2023/07/19 09:52:12;;;;;;;5.50;2.00;;;;;;;20.83;85.65;101200.31;5013353;28;20034;-81
2023/07/19 09:54:38;;;;;;;3.85;2.33;;;;;;;20.78;86.37;101187.41;5006529;28;20449;-81
2023/07/19 09:57:03;;;;;;;3.17;1.75;;;;;;;20.57;84.96;101199.25;4998466;28;20030;-81
2023/07/19 09:59:35;;;;;;;3.10;1.73;;;;;;;20.60;87.13;101192.72;4997638;28;20080;-81
2023/07/19 10:02:02;;;;;;;4.65;1.75;;;;;;;20.46;86.48;101200.28;4996058;28;20037;-81
2023/07/19 10:04:33;;;;;;;3.58;1.60;;;;;;;20.66;86.46;101191.75;5005622;28;20517;-81
2023/07/19 10:07:09;;;;;;;4.72;1.70;;;;;;;20.76;84.74;101200.47;4999620;28;20463;-81
2023/07/19 10:09:43;;;;;;;3.28;1.98;;;;;;;21.13;84.68;101196.38;5002385;28;20033;-81
2023/07/19 10:12:17;;;;;;;2.88;1.67;;;;;;;21.50;83.42;101202.78;4999510;28;20033;-81
2023/07/19 10:15:00;;;;;;;2.78;1.70;;;;;;;21.69;84.71;101196.19;5005499;28;20045;-80
2023/07/19 10:17:26;;;;;;;3.45;1.73;;;;;;;21.90;81.70;101203.38;5006874;28;20038;-81
2023/07/19 10:20:14;;;;;;;5.72;2.72;;;;;;;21.45;81.59;101206.97;5006188;28;20095;-81
2023/07/19 10:22:51;;;;;;;4.07;1.52;;;;;;;21.74;84.65;101211.94;5003738;28;20117;-80
2023/07/19 10:25:22;;;;;;;5.05;1.88;;;;;;;21.75;81.14;101201.34;5006595;28;20037;-81
2023/07/19 10:28:08;;;;;;;2.75;1.55;;;;;;;21.59;80.77;101202.16;5006954;28;20068;-81
2023/07/19 10:30:53;;;;;;;2.83;1.60;;;;;;;21.50;81.04;101209.31;5012879;28;20561;-80
2023/07/19 10:33:27;;;;;;;4.88;1.50;;;;;;;22.03;84.43;101205.44;5019956;28;20050;-81
2023/07/19 10:35:58;;;;;;;2.72;1.40;;;;;;;22.04;82.00;101219.25;5001360;28;20057;-80
2023/07/19 10:38:26;;;;;;;2.63;2.03;;;;;;;22.22;80.62;101206.53;5026636;28;20049;-81
2023/07/19 10:40:58;;;;;;;3.10;1.55;;;;;;;21.52;80.58;101217.38;4999041;28;20037;-80
2023/07/19 10:43:24;;;;;;;3.13;1.48;;;;;;;21.77;79.84;101218.78;4999655;28;20227;-81
2023/07/19 10:45:52;;;;;;;5.18;1.70;;;;;;;22.12;82.33;101214.94;5007216;28;20022;-81
2023/07/19 10:48:19;;;;;;;2.30;1.38;;;;;;;22.12;80.50;101212.09;5012376;28;20460;-81
2023/07/19 10:50:45;;;;;;;3.25;1.50;;;;;;;22.03;78.48;101211.97;5012394;28;20437;-81
2023/07/19 10:53:10;;;;;;;2.83;1.23;;;;;;;22.11;80.34;101218.25;5012859;28;20371;-82
2023/07/19 10:55:35;;;;;;;2.00;1.20;;;;;;;22.02;80.51;101207.50;5006026;28;20022;-82
2023/07/19 10:58:01;;;;;;;1.92;1.38;;;;;;;22.16;80.37;101202.63;5008275;28;20341;-82
2023/07/19 11:00:27;;;;;;;3.00;1.75;;;;;;;22.34;77.19;101205.81;5009063;28;21305;-82
2023/07/19 11:02:53;;;;;;;2.28;1.42;;;;;;;22.03;76.34;101217.66;5007334;28;20503;-81
2023/07/19 11:05:19;;;;;;;1.25;0.95;;;;;;;22.03;82.83;101206.25;5023062;28;20038;-81
2023/07/19 11:07:48;;;;;;;0.80;0.80;;;;;;;21.78;82.45;101208.97;5001742;28;20036;-81
2023/07/19 11:10:13;;;;;;;4.30;1.13;;;;;;;21.86;75.98;101208.34;5005896;28;20413;-80
2023/07/19 11:12:39;;;;;;;1.77;0.95;;;;;;;21.56;81.14;101211.59;5017053;28;20025;-81
2023/07/19 11:15:07;;;;;;;0.88;0.70;;;;;;;21.70;76.67;101216.94;5009770;28;20049;-81
2023/07/19 11:17:34;;;;;;;1.38;1.02;;;;;;;21.54;79.35;101209.19;5003993;28;20122;-81